MyMeetScores TOP 100 TOP TEAMS UPCOMING MEETS COMPLETED MEETS LATEST MEETS ADD SCORES SUPPORT SHOP
Ornaments with Your Own Scores Shop@
MyMeetScores
 
Olivia Bandurski, Midwest Elite Gymnastics Academy - MyMeetScores.com
Olivia Bandurski
Midwest Elite Gymnastics Academy
Personal Bests
Level Vault Bars Beam Floor AA
4 9.300 9.350 9.150 9.200 37.000
6 9.350 8.425 8.900 9.325 36.000
7 9.750 9.425 9.525 9.425 37.650
8 9.725 9.625 9.200 9.275 37.425
9 0.000 9.100 7.500 0.000 9.100
10 9.400 9.000 9.250 8.875 35.475
XS 9.275 9.150 9.050 9.350 35.925
Silver 8.900 9.775 9.125 9.300 37.100
Scores on America's Top 100as of 02.03.2023
Year Level Vault Bars Beam Floor AA
2018 89.725

Click here to view our exclusive Top 100 Collection
Meet Scores
Date Meet Team Session Level Division Vault Bars Beam Floor AA
2022-03-25 Level 3,9,10 State Championships Midwest Elite Gymnastics Academy 2 10 Sr A 9.100 14 8.500 12 7.000 21 8.000 21 32.600 17
2022-03-10 Lucky Invite Midwest Elite Gymnastics Academy A07 10 Older 8.850 16 8.900 7 7.950 15 8.525 12 34.225 10
2022-03-04 MEGA Spring Invite 2022 Midwest Elite Gymnastics Academy 3 10 Senior 9.200 3 9.000 3 7.500 6 8.650 5 34.350 4
2022-02-18 Presidential Classic Midwest Elite Gymnastics Academy R7 10 L10 r7 gp3 0.000 13T 8.825 5 0.000 14 0.000 14 8.825 14
2022-02-04 Pikes Peak Cup Midwest Elite Gymnastics Academy 2B 10 Senior 0.000 27T 8.950 7 0.000 28T 0.000 27T 8.950 27
2022-01-21 UGA Invitational Midwest Elite Gymnastics Academy 8A 10 Sr C 0.000 13T 8.550 9 0.000 14 0.000 11T 8.550 14
2021-12-03 Flipstar's Home for the Holidays Midwest Elite Gymnastics Academy 4 10 Older 9.375 5T 8.200 3 7.525 9 8.875 6 33.975 4
2021-03-26 Illinois State Meet Level 9,10, Platinum, Dia Midwest Elite Gymnastics Academy 06 10 Jr C 9.250 6 7.400 20T 7.375 19 8.850 17 32.875 18
2021-03-12 LUCKY INVITATIONAL Midwest Elite Gymnastics Academy A06 10 Jr B 9.400 3 8.800 10 7.350 15 8.775 12 34.325 11
2021-02-27 2021 Great Western Invitational Girls Midwest Elite Gymnastics Academy 15 10 Filly 9.100 4 8.800 3 8.725 4 7.075 7 33.700 5
2021-02-12 Presidential Classic Midwest Elite Gymnastics Academy R5 10 LOP r5 g2 8.900 13 8.225 8T 7.875 16 7.800 13 32.800 12
2021-02-05 MEGA Cup Midwest Elite Gymnastics Academy 6 10 Junior 9.050 4 8.750 3 9.175 4T 8.425 5 35.400 4
2021-01-23 2021 UGA Invitational Midwest Elite Gymnastics Academy 6A 10 JrB 8.875 11 8.200 10 8.600 6 8.400 12 34.075 10
2021-01-09 MEGA Home Meet Midwest Elite Gymnastics Academy 3 10 N/A 9.250 4 8.300 7 8.350 7 7.875 6 33.775 7
2020-02-28 MEGA Spring Invite 2020 Midwest Elite Gymnastics Academy 6 10 Junior 9.325 1 8.450 3 8.375 4 8.575 6 34.725 3
2020-02-14 Big Classic Midwest Elite Gymnastics Academy 9A 10 Junior A 8.925 17T 8.725 14T 9.250 8 8.575 23 35.475 11
2020-01-30 Circle of Stars Midwest Elite Gymnastics Academy A06 10 Jr B 9.000 6 8.550 3 8.250 5 8.150 7 33.950 5
2020-01-24 Metroplex Challenge Midwest Elite Gymnastics Academy A05 10 Jr B 8.950 8 7.600 7 7.950 10 8.250 8 32.750 8
2020-01-10 St Jude Benefit Meet Midwest Elite Gymnastics Academy 6B 10 Jr A 8.900 3T 7.625 3 7.950 7T 8.625 6 33.100 5
2019-03-01 2019 MEGA Spring Invite Midwest Elite Gymnastics Academy All 9 All Ages 0.000 15T 7.900 14 0.000 14T 0.000 15T 7.900 17
2019-02-22 Jaycie Phelps Midwest Showdown Midwest Elite Gymnastics Academy 2A 9 Senior 0.000 16T 9.100 3 0.000 13T 0.000 14T 9.100 16
2019-02-08 IGI Chicago Style 2019 Midwest Elite Gymnastics Academy 39 9 331 Michigan L9 B 0.000 8.925 10 0.000 0.000 8.925 18
2019-01-11 St Jude Benefit Meet Midwest Elite Gymnastics Academy 2C 9 Jr B 0.000 10 0.000 10 7.500 9 7.500 10
2018-04-20 2018 Region 5 Levels 7/8 Championships Midwest Elite Gymnastics Academy 05B 8 Sr A1 9.525 1 9.425 3 9.200 9 9.200 15T 37.350 3
2018-03-23 Illinois Level 7 & 8 State Competition Midwest Elite Gymnastics Academy 03 8 Sr A 9.725 1 9.450 1 8.975 13 9.275 9 37.425 1
2018-03-02 MEGA Spring Meet Midwest Elite Gymnastics Academy 3 8 13+ yrs. 9.450 1 9.625 1 8.950 8 8.825 6T 36.850 1
2018-02-23 Jaycie Phelps Midwest Showdown Midwest Elite Gymnastics Academy 6A 8 C 9.200 2 9.350 2 9.150 5 9.150 6 36.850 3
2018-02-16 Big Classic Midwest Elite Gymnastics Academy 6A 8 Junior B 8.900 1T 9.575 2 9.000 4 9.200 6 36.675 2
2018-01-31 Buckeye Classic Midwest Elite Gymnastics Academy SS3 8 C 7.900 11 9.575 1 9.050 4T 9.050 8 35.575 4T
2018-01-26 2018 UGA Classic Midwest Elite Gymnastics Academy A5 8 Junior 8.450 12 9.450 3T 8.350 11 9.000 8 35.250 8T
2018-01-12 St Jude Benefit Meet Midwest Elite Gymnastics Academy 3B 8 SrA 9.200 1 8.650 10 8.500 11 9.075 6 35.425 7
2017-04-21 2017 Region 5 Levels 7 & 8 Championships Midwest Elite Gymnastics Academy 18 7 Sr A 1 9.700 2 9.425 5 9.300 6 9.225 12T 37.650 2
2017-03-23 2017 Illinois Level 6, 7 State Championship Midwest Elite Gymnastics Academy 3 7 Sr A 9.700 1T 9.050 11T 9.450 4T 9.425 10T 37.625 3
2017-03-03 Salto National Invitational Midwest Elite Gymnastics Academy 2A 7 11-12 yr. 9.375 1 9.250 2T 9.250 5T 9.300 7 37.175 1
2017-02-24 Kinetic Classic Midwest Elite Gymnastics Academy 1 7 All Ages 9.550 1 9.375 13T 9.175 15T 9.175 24 37.275 4T
2017-02-18 2017 Great Western Invitational Women's Midwest Elite Gymnastics Academy 9 7 L7 (12+) 9.750 1 8.675 10 9.525 5 9.350 9 37.300 4T
2017-01-27 Circle Of Stars Gymnastics Invitational Midwest Elite Gymnastics Academy B8 7 Jr C 9.575 1 9.000 5T 9.100 8T 9.100 11T 36.775 5
2017-01-20 2017 Bravo Classic Midwest Elite Gymnastics Academy 11A 7 12+yrs 9.600 2 8.825 15 8.900 16T 9.125 15T 36.450 14
2017-01-05 Leenda's Island Adventure Midwest Elite Gymnastics Academy G03 7 12 Year Ol 9.250 8T 8.625 11 9.125 9 9.175 14 36.175 10
2016-04-01 2016 Illinois Level 6 & 7 State Championships Midwest Elite Gymnastics Academy 07 6 L6 Jr D 9.350 16T 8.425 25 8.900 28T 9.325 21T 36.000 22
2016-02-20 Big Classic Midwest Elite Gymnastics Academy 9B 6 Junior B 8.550 18 8.275 10 8.375 18 8.125 20 33.325 20
2016-02-12 IGI Chicago Style Gymnastics Meet Midwest Elite Gymnastics Academy 521 6 SrA 0.000 22 8.375 14 8.050 21 0.000 9 16.425 22
2015-03-19 2015 Illinois Level 4 State Championship Midwest Elite Gymnastics Academy All 4 Jr.C 9.300 5 9.350 3 9.150 13 9.200 9 37.000 4
2015-02-20 Midwest Open 2015 Midwest Elite Gymnastics Academy 8A 4 10 9.050 3 8.750 3 8.325 11 8.825 8 34.950 3
2015-02-13 IGI Chicago Style Gymnastics Meet Midwest Elite Gymnastics Academy 621 4 10 Yrs Old 8.850 3 8.300 18T 8.875 16 9.000 8 35.025 11T
2015-01-09 Leendas Island Adventure Midwest Elite Gymnastics Academy PP1 4 10 Year Ol 8.600 2 8.750 2T 9.025 3 9.050 2 35.425 1
2014-12-12 Justin Spring Invitational Midwest Elite Gymnastics Academy 9A 4 Sr A 8.800 2 8.850 7 8.800 8 8.700 9 35.150 3
2014-04-04 2014 Illinois Level 5 and XCEL State Championship Midwest Elite Gymnastics Academy Silver Jr.B 8.900 4 9.775 3 9.125 21 9.300 8 37.100 4
2014-03-17 2014 Region 5 Xcel Regional Invite Midwest Elite Gymnastics Academy 1 XS ChB 9.275 1T 9.050 9T 9.050 12T 8.550 14 35.925 8
2014-01-31 Wisconsin Dells Gymnastics Vacation Classic Midwest Elite Gymnastics Academy 02B XS Jr B 8.900 3 9.150 8 4.600 12 9.350 1 32.000 10